• Join FlightAware (Why Join?)
  • Login
  • US Flag 
12:35AM EDT


 

Airport Tracker/Info


-or-


 

Live Flight TrackerFlight Track Log ✈ EJA396 ✈ 13-May-2014 ✈ KEGE - KDEN

Flight Track Log - Related Links

Times and Time Zones

All times are in EDT time to prevent confusion due to time zone crossing. See the EJA396 flight status page for this flight to view local times or setup timezone preferences in your user account.

Time Position Orientation Groundspeed Altitude Reporting Facility
EDT Latitude Longitude Course Direction KTS MPH feet Rate Location/Type
08:06PM 39.6314 -106.9450 82° East 197 227 8,200  Level Denver Center
08:07PM 39.5903 -107.0125 232° Southwest 243 280 12,900 4,080 Climbing Denver Center
08:08PM 39.6528 -107.0564 332° Northwest 271 312 16,700 1,980 Climbing Denver Center
08:09PM 39.7244 -107.0675 353° North 325 374 17,000 120 Climbing Denver Center
08:10PM 39.8061 -106.9772 40° Northeast 344 396 17,000  Level Denver Center
08:11PM 39.7275 -106.1001 82° East  Level Estimated
08:11PM 39.8486 -106.8639 64° Northeast 346 398 17,000  Level Denver Center
08:12PM 39.8908 -106.7500 64° Northeast 346 398 17,000  Level Denver Center
08:13PM 39.9344 -106.6322 64° Northeast 353 406 17,000  Level Denver Center
08:14PM 39.9761 -106.5158 65° Northeast 355 409 17,100  Climbing Denver Center
08:15PM 40.0272 -106.4169 56° Northeast 336 387 17,100  Level Denver Center
08:16PM 40.1078 -106.3786 20° North 317 365 17,100  Level Denver Center
08:17PM 40.1914 -106.3608 North 307 353 17,100 -60 Level Denver Center
08:19PM 40.2900 -106.3394 North 305 351 17,000 -60 Descending Denver Center
08:20PM 40.3394 -106.2656 49° Northeast 308 354 17,000  Level Denver Center
08:21PM 40.3511 -106.1517 82° East 312 359 17,000  Level Denver Center
08:22PM 40.3619 -106.0431 83° East 312 359 17,000  Level Denver Center
08:23PM 40.3733 -105.9267 83° East 315 362 17,000  Level Denver Center
08:24PM 40.3886 -105.7653 83° East 365 420 17,000  Level Denver Center
08:25PM 40.3889 -105.6467 90° East 335 386 17,000  Level Denver Center
08:26PM 40.3706 -105.5233 101° East 345 397 17,000 -540 Level Denver Center
08:27PM 40.3408 -105.4114 109° East 325 374 16,000 -1,320 Descending Denver Center
08:28PM 40.2786 -105.3139 130° Southeast 323 372 14,300 -1,260 Descending Denver Center
08:29PM 40.2219 -105.2250 130° Southeast 318 366 13,500 -660 Descending Denver Center
08:30PM 40.1594 -105.1286 130° Southeast 319 367 13,000 -300 Descending Denver Center
08:31PM 40.1053 -105.0433 130° Southeast 306 352 13,000  Level Denver Center
08:32PM 40.0497 -104.9575 130° Southeast 306 352 13,000 -120 Level Denver Center
08:33PM 39.9925 -104.8683 130° Southeast 293 337 12,800 -780 Descending Denver Center
08:34PM 39.9367 -104.8061 139° Southeast 275 316 11,400 -900 Descending Denver Center
08:35PM 39.8592 -104.8072 181° South 263 303 11,000 -300 Descending Denver Center
08:36PM 39.7869 -104.8089 181° South 263 303 10,900 -720 Descending Denver Center
08:37PM 39.7175 -104.8103 181° South 235 270 9,600 -1,320 Descending Denver Center
08:38PM 39.6711 -104.7722 148° Southeast 236 272 8,200 -780 Descending Denver Center
08:39PM 39.6808 -104.7000 80° East 196 226 8,000 -360 Descending Denver Center
08:40PM 39.7214 -104.6661 33° Northeast 174 200 7,500 -720 Descending Denver Center
08:41PM 39.7689 -104.6608 North 176 203 6,600 -900 Descending Denver Center
08:42PM 39.8119 -104.6606 360° North 130 150 5,700 -600 Descending Denver Center
08:43PM 39.8408 -104.6608 360° North 106 122 5,400 -300 Descending Denver Center
08:45PM 39.8500 -104.6667 North  Level FlightAware Approximate
08:52PM 39.8617 -104.6732 18° North  Level Estimated
08:53PM 39.8617 -104.6732 13° North  Level Estimated